Latest Weather Observations for Albury

IDV60801

Issued at 10:31 pm EST Sunday 2 August 2015 (issued every 30 minutes, with the page automatically refreshed every 10 minutes)

About weather observations | Map of weather stations | Latest weather observations for VIC | Other Formats
Station Details ID: 072160 Name: ALBURY AIRPORT AWS Lat: -36.07 Lon: 146.95 Height: 163.5 m
Data from the previous 72 hours. | See also: Recent months at Albury
Date/Time
EST
Temp
°C
App
Temp
°C
Dew
Point
Rel
Hum
%
Delta-T
°C
Wind Press
QNH
hPa
Press
MSL
hPa
Rain
since 9 am
mm
Dir
 
Spd
km/h
Gust
km/h
Spd
kts
Gust
kts
02/10:30pm 9.6 4.9 5.2 74 2.0 NNW 19 24 10 13 1017.7 1017.9 2.2
02/10:00pm 9.3 5.4 5.3 76 1.8 NNW 15 20 8 11 1017.8 1018.0 2.2
02/09:30pm 9.2 5.2 5.0 75 1.9 NNW 15 20 8 11 1017.5 1017.7 2.2
02/09:00pm 9.2 4.8 5.0 75 1.9 NNW 17 22 9 12 1017.4 1017.6 2.2
02/08:30pm 9.0 5.4 5.0 76 1.8 N 13 20 7 11 1017.1 1017.3 2.2
02/08:00pm 8.8 5.1 4.6 75 1.9 N 13 19 7 10 1017.2 1017.4 2.2
02/07:30pm 9.3 5.6 4.5 72 2.1 N 13 20 7 11 1017.2 1017.4 2.2
02/07:00pm 9.5 5.8 4.5 71 2.2 NNW 13 19 7 10 1017.3 1017.5 2.2
02/06:30pm 9.2 6.2 4.2 71 2.2 N 9 13 5 7 1017.1 1017.3 2.2
02/06:00pm 9.3 5.9 4.1 70 2.3 NW 11 15 6 8 1016.6 1016.8 2.2
02/05:30pm 9.5 5.7 3.9 68 2.5 NW 13 17 7 9 1015.9 1016.1 2.2
02/05:00pm 9.8 5.2 3.8 66 2.7 WNW 17 24 9 13 1015.3 1015.6 2.2
02/04:30pm 10.6 6.1 4.1 64 2.9 W 17 28 9 15 1015.0 1015.3 2.2
02/04:00pm 9.8 5.3 4.2 68 2.5 WNW 17 26 9 14 1014.9 1015.2 2.2
02/03:30pm 10.9 5.4 4.1 63 3.1 W 22 33 12 18 1014.5 1014.8 2.2
02/03:00pm 11.2 6.0 3.7 60 3.3 WSW 20 28 11 15 1014.3 1014.6 2.2
02/02:30pm 10.2 5.6 3.9 65 2.8 W 17 28 9 15 1014.0 1014.3 2.2
02/02:00pm 11.0 5.1 4.0 62 3.1 W 24 35 13 19 1013.6 1013.9 2.2
02/01:30pm 11.4 6.7 6.1 70 2.5 W 20 26 11 14 1013.5 1013.7 2.2
02/01:09pm 10.8 6.4 6.6 75 2.0 W 19 28 10 15 1013.7 1014.0 2.2
02/01:00pm 10.4 6.3 6.4 76 1.9 W 17 22 9 12 1013.7 1014.0 2.2
02/12:30pm 9.6 5.7 7.0 84 1.2 W 17 22 9 12 1013.8 1014.1 2.2
02/12:27pm 9.4 5.3 6.1 80 1.5 W 17 22 9 12 1013.8 1014.1 2.2
02/12:00pm 9.1 7.1 7.1 87 0.9 WNW 7 15 4 8 1014.1 1014.4 2.0
02/11:30am 8.4 5.5 6.7 89 0.8 WSW 11 15 6 8 1014.4 1014.7 1.8
02/11:00am 8.1 5.2 6.7 91 0.7 SW 11 15 6 8 1014.1 1014.4 1.8
02/10:37am 7.6 4.0 6.7 94 0.4 WSW 15 20 8 11 1014.7 1015.0 1.8
02/10:30am 7.5 3.1 6.4 93 0.5 WSW 19 32 10 17 1014.8 1015.1 1.6
02/10:00am 8.7 5.0 8.1 96 0.3 W 17 24 9 13 1014.5 1014.8 0.4
02/09:31am 8.9 6.2 8.8 99 0.0 W 13 19 7 10 1013.6 1013.9 0.0
02/09:30am 8.9 6.2 8.8 99 0.0 W 13 19 7 10 1013.6 1013.9 0.0
02/09:22am 8.8 6.4 8.7 99 0.0 W 11 15 6 8 1013.3 1013.5 0.0
02/09:00am 8.7 5.9 8.6 99 0.0 W 13 15 7 8 1013.2 1013.4 27.2
02/08:30am 8.4 6.3 8.4 100 0.0 W 9 13 5 7 1013.4 1013.6 26.8
02/08:00am 8.3 6.2 8.3 100 0.0 WSW 9 11 5 6 1013.4 1013.6 26.6
02/07:43am 8.1 6.3 8.1 100 0.0 W 7 9 4 5 1013.0 1013.2 26.4
02/07:30am 7.9 5.7 7.9 100 0.0 WSW 9 11 5 6 1012.9 1013.1 26.4
02/07:00am 7.8 6.2 7.8 100 0.0 N 6 7 3 4 1012.6 1012.8 26.4
02/06:31am 8.0 6.4 8.0 100 0.0 NNE 6 9 3 5 1012.8 1013.0 26.4
02/06:30am 8.0 6.4 8.0 100 0.0 NNE 6 9 3 5 1012.8 1013.0 26.4
02/06:00am 8.0 7.5 8.0 100 0.0 CALM 0 0 0 0 1012.7 1012.9 26.4
02/05:30am 7.8 6.0 7.8 100 0.0 NW 7 9 4 5 1012.9 1013.1 26.4
02/05:00am 7.5 6.9 7.5 100 0.0 CALM 0 0 0 0 1012.7 1012.9 26.4
02/04:58am 7.6 7.0 7.6 100 0.0 CALM 0 0 0 0 1012.7 1012.9 26.4
02/04:55am 7.7 7.2 7.7 100 0.0 CALM 0 0 0 0 1012.7 1012.9 26.4
02/04:30am 7.8 7.3 7.8 100 0.0 CALM 0 0 0 0 1012.9 1013.1 26.4
02/04:00am 7.7 7.1 7.6 99 0.0 CALM 0 0 0 0 1013.2 1013.4 26.4
02/03:51am 8.1 7.7 8.1 100 0.0 CALM 0 0 0 0 1013.3 1013.5 26.4
02/03:30am 8.2 7.8 8.1 99 0.0 CALM 0 0 0 0 1013.7 1014.0 26.4
02/03:00am 8.4 7.7 8.4 100 0.0 ESE 2 6 1 3 1014.2 1014.5 26.4
02/02:30am 8.4 6.9 8.3 99 0.0 SSE 6 7 3 4 1014.9 1015.2 26.4
02/02:00am 8.5 7.4 8.4 99 0.0 NE 4 7 2 4 1015.4 1015.7 26.4
02/01:30am 8.6 6.9 8.5 99 0.0 ESE 7 9 4 5 1015.2 1015.5 26.4
02/01:00am 8.7 7.2 8.6 99 0.0 NE 6 7 3 4 1016.3 1016.5 26.4
02/12:30am 8.8 7.8 8.7 99 0.0 ENE 4 7 2 4 1016.9 1017.1 26.4
02/12:00am 9.0 7.1 8.9 99 0.0 NNE 9 13 5 7 1017.1 1017.3 26.4
 
Date/Time
EST
Temp
°C
App
Temp
°C
Dew
Point
Rel
Hum
%
Delta-T
°C
Wind Press
QNH
hPa
Press
MSL
hPa
Rain
since 9 am
mm
Dir
 
Spd
km/h
Gust
km/h
Spd
kts
Gust
kts
01/11:30pm 9.1 7.6 9.0 99 0.0 NE 7 11 4 6 1017.2 1017.4 26.2
01/11:00pm 9.3 7.1 9.3 100 0.0 NNE 11 15 6 8 1017.1 1017.3 26.2
01/10:30pm 9.3 8.4 9.3 100 0.0 NE 4 7 2 4 1017.5 1017.7 25.8
01/10:00pm 9.4 8.2 9.4 100 0.0 SE 6 6 3 3 1017.6 1017.8 25.8
01/09:30pm 9.6 7.8 9.6 100 0.0 NE 9 11 5 6 1017.2 1017.4 25.2
01/09:00pm 9.8 8.5 9.8 100 0.0 W 7 11 4 6 1018.1 1018.3 24.6
01/08:30pm 9.8 7.7 9.8 100 0.0 NNE 11 15 6 8 1017.1 1017.3 23.2
01/08:00pm 9.9 7.8 9.9 100 0.0 ENE 11 15 6 8 1016.8 1017.0 23.2
01/07:30pm 9.7 8.9 9.7 100 0.0 NNE 4 9 2 5 1017.6 1017.8 23.0
01/07:00pm 9.6 8.8 9.6 100 0.0 NNW 4 7 2 4 1016.9 1017.1 22.2
01/06:30pm 9.8 8.1 9.8 100 0.0 ENE 9 11 5 6 1016.1 1016.3 21.6
01/06:07pm 9.9 9.5 9.9 100 0.0 ESE 2 7 1 4 1016.6 1016.8 21.4
01/06:00pm 9.9 9.9 9.9 100 0.0 CALM 0 0 0 0 1016.8 1017.0 21.4
01/05:30pm 10.0 8.7 10.0 100 0.0 SE 7 9 4 5 1016.1 1016.3 20.4
01/05:00pm 10.1 9.0 10.1 100 0.0 SE 6 9 3 5 1015.5 1015.8 19.8
01/04:51pm 10.1 8.8 10.1 100 0.0 SE 7 7 4 4 1015.5 1015.8 19.8
01/04:30pm 10.1 10.2 10.1 100 0.0 CALM 0 0 0 0 1015.5 1015.8 18.4
01/04:00pm 10.2 10.3 10.0 99 0.1 CALM 0 0 0 0 1015.1 1015.4 16.8
01/03:45pm 10.2 9.1 10.0 99 0.1 E 6 7 3 4 1015.0 1015.3 15.4
01/03:30pm 10.2 9.1 10.0 99 0.1 ENE 6 7 3 4 1014.8 1015.1 14.2
01/03:00pm 10.2 10.2 9.9 98 0.2 CALM 0 6 0 3 1014.5 1014.8 12.8
01/02:58pm 10.2 9.8 9.9 98 0.2 NNE 2 6 1 3 1014.5 1014.8 12.6
01/02:30pm 10.2 9.0 9.7 97 0.3 N 6 7 3 4 1014.5 1014.8 10.8
01/02:22pm 10.1 8.9 9.6 97 0.3 NNE 6 9 3 5 1014.3 1014.6 10.4
01/02:00pm 10.2 9.0 9.6 96 0.3 NE 6 7 3 4 1013.9 1014.2 9.4
01/01:30pm 9.9 8.0 9.1 95 0.4 NNW 9 13 5 7 1014.4 1014.7 8.6
01/01:00pm 10.0 7.8 9.4 96 0.3 NW 11 15 6 8 1014.7 1015.0 7.0
01/12:48pm 9.9 8.4 9.3 96 0.3 NNW 7 11 4 6 1014.5 1014.8 6.4
01/12:30pm 10.0 8.6 9.4 96 0.3 NW 7 9 4 5 1014.8 1015.1 5.6
01/12:01pm 10.1 8.7 9.5 96 0.3 NW 7 11 4 6 1015.2 1015.5 4.4
01/12:00pm 10.1 8.7 9.5 96 0.3 NNW 7 11 4 6 1015.2 1015.5 4.4
01/11:30am 9.6 8.8 9.5 99 0.1 SE 4 6 2 3 1015.6 1015.9 3.4
01/11:10am 9.6 8.2 9.5 99 0.1 SE 7 9 4 5 1015.6 1015.9 2.0
01/11:05am 9.7 8.5 9.6 99 0.1 SE 6 9 3 5 1015.5 1015.8 1.6
01/11:00am 9.7 8.5 9.6 99 0.1 ESE 6 7 3 4 1015.5 1015.8 1.6
01/10:30am 9.9 9.5 9.8 99 0.1 SSW 2 7 1 4 1015.5 1015.8 0.6
01/10:27am 9.9 9.1 9.6 98 0.2 SSW 4 7 2 4 1015.5 1015.8 0.6
01/10:00am 9.8 8.6 9.7 99 0.1 W 6 9 3 5 1015.4 1015.7 0.2
01/09:45am 9.6 8.2 9.5 99 0.1 SSE 7 13 4 7 1015.4 1015.8 0.2
01/09:30am 9.4 8.5 9.3 99 0.0 N 4 9 2 5 1015.1 1015.5 0.2
01/09:00am 8.8 6.8 8.7 99 0.0 E 9 13 5 7 1015.0 1015.4 1.2
01/08:36am 8.0 6.4 7.9 99 0.0 ENE 6 9 3 5 1015.8 1016.1 1.0
01/08:30am 7.8 5.9 7.7 99 0.0 ESE 7 9 4 5 1015.6 1016.0 1.0
01/08:16am 7.7 6.0 7.6 99 0.0 E 6 9 3 5 1015.9 1016.2 1.0
01/08:00am 7.4 6.4 7.3 99 0.0 E 2 6 1 3 1016.1 1016.4 0.8
01/07:30am 7.1 5.6 6.8 98 0.1 SSW 4 7 2 4 1015.8 1016.1 0.4
01/07:00am 6.8 5.2 6.4 97 0.2 S 4 9 2 5 1015.4 1015.8 0.0
01/06:30am 6.3 5.4 5.9 97 0.2 CALM 0 0 0 0 1015.4 1015.8 0.0
01/06:00am 6.3 5.0 5.9 97 0.2 SSE 2 6 1 3 1015.8 1016.1 0.0
01/05:30am 6.0 4.6 5.4 96 0.3 ESE 2 7 1 4 1015.6 1016.0 0.0
01/05:00am 5.7 4.6 5.3 97 0.2 CALM 0 0 0 0 1015.9 1016.2 0.0
01/04:30am 5.5 4.4 5.1 97 0.2 CALM 0 0 0 0 1016.0 1016.3 0.0
01/04:00am 5.6 4.5 5.3 98 0.1 CALM 0 0 0 0 1016.0 1016.3 0.0
01/03:30am 5.2 2.9 4.9 98 0.1 S 6 7 3 4 1016.5 1016.8 0.0
01/03:00am 5.0 3.1 4.7 98 0.1 SSE 4 7 2 4 1017.1 1017.4 0.0
01/02:30am 4.8 3.6 4.5 98 0.1 CALM 0 0 0 0 1017.8 1018.1 0.0
01/02:00am 4.8 3.6 4.5 98 0.1 CALM 0 0 0 0 1018.0 1018.3 0.0
01/01:30am 4.5 3.2 3.9 96 0.3 CALM 0 0 0 0 1018.8 1019.1 0.0
01/01:00am 4.2 2.8 3.5 95 0.3 CALM 0 0 0 0 1019.3 1019.6 0.0
01/12:30am 4.2 2.8 3.5 95 0.3 CALM 0 0 0 0 1019.6 1020.0 0.0
01/12:00am 4.2 2.8 3.5 95 0.3 CALM 0 0 0 0 1019.7 1020.1 0.0
 
Date/Time
EST
Temp
°C
App
Temp
°C
Dew
Point
Rel
Hum
%
Delta-T
°C
Wind Press
QNH
hPa
Press
MSL
hPa
Rain
since 9 am
mm
Dir
 
Spd
km/h
Gust
km/h
Spd
kts
Gust
kts
31/11:30pm 4.2 2.8 3.5 95 0.3 CALM 0 0 0 0 1019.9 1020.3 0.0
31/11:00pm 4.3 2.9 3.4 94 0.4 CALM 0 0 0 0 1020.3 1020.7 0.0
31/10:30pm 4.7 3.4 4.0 95 0.3 CALM 0 0 0 0 1020.4 1020.8 0.0
31/10:00pm 4.2 2.7 3.2 93 0.4 CALM 0 0 0 0 1021.0 1021.4 0.0
31/09:30pm 4.5 3.1 3.8 95 0.3 CALM 0 0 0 0 1021.2 1021.6 0.0
31/09:00pm 3.9 2.4 2.9 93 0.4 CALM 0 0 0 0 1021.1 1021.5 0.0
31/08:30pm 4.6 3.2 3.4 92 0.5 CALM 0 0 0 0 1020.9 1021.3 0.0
31/08:00pm 5.0 3.6 3.5 90 0.6 CALM 0 0 0 0 1020.6 1021.0 0.0
31/07:30pm 5.9 3.4 3.9 87 0.9 E 6 7 3 4 1020.3 1020.7 0.0
31/07:00pm 7.0 4.9 4.0 81 1.3 NE 4 7 2 4 1020.0 1020.4 0.0
31/06:30pm 9.0 7.0 4.6 74 2.0 NNE 4 6 2 3 1019.8 1020.2 0.0
31/06:00pm 9.7 7.2 4.7 71 2.2 NNW 7 9 4 5 1019.4 1019.8 0.0
31/05:30pm 10.0 6.7 4.4 68 2.5 N 11 13 6 7 1019.2 1019.5 0.0
31/05:00pm 11.5 7.8 4.7 63 3.1 NNW 13 17 7 9 1019.3 1019.6 0.0
31/04:30pm 12.2 8.6 4.9 61 3.4 N 13 20 7 11 1019.3 1019.6 0.0
31/04:00pm 13.0 9.4 5.2 59 3.6 N 13 17 7 9 1019.2 1019.5 0.0
31/03:30pm 13.2 9.1 4.6 56 4.0 NNE 15 20 8 11 1019.4 1019.8 0.0
31/03:00pm 13.6 10.3 4.7 55 4.1 N 11 19 6 10 1019.4 1019.8 0.0
31/02:30pm 13.7 11.2 4.8 55 4.2 NE 7 15 4 8 1019.5 1019.9 0.0
31/02:00pm 12.7 10.5 6.1 64 3.1 WNW 7 13 4 7 1019.8 1020.2 0.0
31/01:30pm 12.6 10.9 5.8 63 3.2 WNW 4 9 2 5 1020.2 1020.6 0.0
31/01:00pm 12.4 10.5 4.9 60 3.5 SSW 4 7 2 4 1020.5 1020.9 0.0
31/12:30pm 12.3 11.0 5.9 65 3.0 ESE 2 9 1 5 1020.5 1020.9 0.0
31/12:21pm 12.5 10.4 6.5 67 2.9 NE 7 11 4 6 1020.6 1021.0 0.0
31/12:00pm 13.0 10.9 6.8 66 3.0 W 7 13 4 7 1021.2 1021.6 0.0
31/11:58am 12.8 10.4 6.8 67 2.9 W 9 13 5 7 1021.2 1021.6 0.0
31/11:45am 12.8 10.6 6.4 65 3.1 WSW 7 11 4 6 1021.3 1021.7 0.0
31/11:30am 12.6 10.1 6.6 67 2.9 WSW 9 13 5 7 1021.4 1021.8 0.0
31/11:00am 12.6 10.7 6.6 67 2.9 E 6 13 3 7 1021.6 1022.0 0.0
31/10:55am 12.4 10.6 7.1 70 2.6 SE 6 13 3 7 1021.5 1021.9 0.0
31/10:30am 11.6 9.7 6.7 72 2.3 WNW 6 11 3 6 1021.6 1022.0 0.0
31/10:00am 11.4 10.6 6.3 71 2.4 CALM 0 0 0 0 1021.2 1021.6 0.0
31/09:30am 11.0 9.5 6.7 75 2.0 WNW 4 9 2 5 1021.2 1021.6 0.0
31/09:00am 9.7 8.8 6.1 78 1.7 CALM 0 0 0 0 1021.0 1021.4 0.2
31/08:30am 9.3 8.5 6.4 82 1.4 CALM 0 0 0 0 1020.7 1021.1 0.2
31/08:00am 8.3 7.2 6.9 91 0.7 ENE 2 6 1 3 1020.3 1020.7 0.2
31/07:30am 7.5 6.7 6.6 94 0.4 CALM 0 0 0 0 1020.0 1020.4 0.2
31/07:24am 7.6 6.4 6.4 92 0.6 NNW 2 6 1 3 1020.0 1020.4 0.2
31/07:00am 8.0 5.9 6.6 91 0.6 WSW 7 9 4 5 1019.7 1020.1 0.2
31/06:30am 8.2 5.8 6.8 91 0.7 WSW 9 11 5 6 1019.3 1019.6 0.2
31/06:00am 8.2 7.5 7.0 92 0.6 CALM 0 0 0 0 1018.9 1019.2 0.2
31/05:30am 8.1 6.2 6.9 92 0.6 WSW 6 7 3 4 1018.8 1019.1 0.2
31/05:24am 8.1 6.1 6.9 92 0.6 WSW 7 7 4 4 1018.8 1019.1 0.2
31/05:00am 8.1 7.4 7.0 93 0.5 CALM 0 0 0 0 1018.6 1018.9 0.2
31/04:30am 7.7 7.0 6.8 94 0.4 CALM 0 0 0 0 1018.3 1018.6 0.2
31/04:00am 7.9 7.2 6.8 93 0.5 CALM 0 0 0 0 1018.2 1018.5 0.2
31/03:30am 7.9 7.2 6.8 93 0.5 CALM 0 0 0 0 1018.4 1018.7 0.2
31/03:00am 7.8 7.0 6.3 90 0.7 CALM 0 0 0 0 1018.6 1018.9 0.2
31/02:30am 8.2 5.8 7.0 92 0.6 SSE 9 11 5 6 1018.8 1019.1 0.2
31/02:00am 8.5 7.7 6.5 87 0.9 CALM 0 0 0 0 1018.8 1019.1 0.2
31/01:30am 8.9 7.7 6.5 85 1.1 S 2 6 1 3 1018.8 1019.1 0.2
31/01:00am 8.4 7.7 7.0 91 0.7 CALM 0 0 0 0 1018.8 1019.1 0.2
31/12:30am 8.2 7.6 7.3 94 0.4 CALM 0 0 0 0 1019.2 1019.5 0.2
31/12:00am 8.1 7.4 6.9 92 0.6 CALM 0 4 0 2 1019.6 1020.0 0.2
 
Date/Time
EST
Temp
°C
App
Temp
°C
Dew
Point
Rel
Hum
%
Delta-T
°C
Wind Press
QNH
hPa
Press
MSL
hPa
Rain
since 9 am
mm
Dir
 
Spd
km/h
Gust
km/h
Spd
kts
Gust
kts
30/11:30pm 8.4 6.5 6.9 90 0.7 NNE 6 9 3 5 1019.9 1020.3 0.2
30/11:00pm 8.2 7.1 6.7 90 0.7 E 2 9 1 5 1020.3 1020.7 0.2

Other Formats:

Comma delimited format used in spreadsheet applications
http://www.bom.gov.au/fwo/IDV60801/IDV60801.95896.axf

JavaScript Object Notation format (JSON) in row-major order
http://www.bom.gov.au/fwo/IDV60801/IDV60801.95896.json